Time;durP1;ratioP1;P1;durP2;ratioP2;P2;SDS_P1;SDS_P2;PMS_P1;PMS_P2;Temp;Humidity;BMP_temperature;BMP_pressure;BME280_temperature;BME280_humidity;BME280_pressure;Samples;Min_cycle;Max_cycle;Signal;HPM_P1;HPM_P2
2024/03/21 00:01:40;;;;;;;7.85;2.92;;;14.40;94.00;;;;;;5008585;28;20037;-57
2024/03/21 00:04:06;;;;;;;4.78;2.45;;;14.40;94.00;;;;;;5008695;28;20451;-57
2024/03/21 00:06:32;;;;;;;6.13;2.85;;;14.40;94.00;;;;;;5026211;28;20026;-57
2024/03/21 00:08:57;;;;;;;4.25;2.60;;;14.40;94.00;;;;;;5026226;28;20060;-57
2024/03/21 00:11:23;;;;;;;5.68;2.40;;;14.40;94.10;;;;;;4992075;28;20045;-57
2024/03/21 00:13:49;;;;;;;7.53;2.60;;;14.40;94.10;;;;;;5008314;28;20495;-57
2024/03/21 00:16:14;;;;;;;5.30;2.70;;;14.40;94.10;;;;;;5008407;28;20088;-57
2024/03/21 00:18:41;;;;;;;5.93;2.50;;;14.40;94.10;;;;;;5008311;28;20037;-57
2024/03/21 00:21:07;;;;;;;5.45;2.53;;;14.40;94.20;;;;;;5008506;28;20129;-57
2024/03/21 00:23:33;;;;;;;5.05;2.67;;;14.40;94.10;;;;;;5008277;28;20468;-56
2024/03/21 00:26:01;;;;;;;9.38;2.67;;;14.30;94.20;;;;;;5008282;28;20026;-57
2024/03/21 00:28:28;;;;;;;4.15;2.60;;;14.30;94.20;;;;;;5025967;28;20037;-57
2024/03/21 00:30:56;;;;;;;5.13;2.67;;;14.30;94.20;;;;;;5024560;28;20106;-57
2024/03/21 00:33:22;;;;;;;5.30;2.50;;;14.30;94.20;;;;;;5008666;28;20034;-57
2024/03/21 00:35:48;;;;;;;4.47;2.40;;;14.30;94.20;;;;;;5007871;28;20034;-57
2024/03/21 00:38:14;;;;;;;6.10;2.50;;;14.30;94.20;;;;;;5007824;28;20037;-57
2024/03/21 00:40:39;;;;;;;4.93;2.42;;;14.20;94.20;;;;;;5007915;28;20022;-57
2024/03/21 00:43:05;;;;;;;3.13;2.20;;;14.20;94.30;;;;;;5025729;28;20092;-57
2024/03/21 00:45:31;;;;;;;3.13;2.13;;;14.20;94.30;;;;;;5024259;28;20033;-57
2024/03/21 00:47:57;;;;;;;6.07;2.42;;;14.20;94.30;;;;;;5007737;28;20041;-57
2024/03/21 00:50:22;;;;;;;4.10;2.53;;;14.10;94.30;;;;;;5025598;28;20061;-57
2024/03/21 00:52:48;;;;;;;6.15;2.55;;;14.10;94.30;;;;;;5025172;28;20030;-57
2024/03/21 00:55:14;;;;;;;3.75;2.22;;;14.10;94.30;;;;;;5025415;28;20144;-57
2024/03/21 00:57:39;;;;;;;3.88;2.35;;;14.10;94.40;;;;;;5007376;28;20096;-57
2024/03/21 01:00:07;;;;;;;4.15;2.60;;;14.10;94.40;;;;;;5025407;28;20026;-57
2024/03/21 01:02:34;;;;;;;3.42;2.45;;;14.10;94.40;;;;;;5023424;28;20018;-57
2024/03/21 01:05:00;;;;;;;3.50;2.03;;;14.00;94.40;;;;;;5025317;28;20038;-57
2024/03/21 01:07:27;;;;;;;5.15;2.35;;;14.00;94.40;;;;;;5023053;28;20086;-57
2024/03/21 01:09:53;;;;;;;3.63;2.30;;;14.00;94.50;;;;;;5007499;28;20037;-57
2024/03/21 01:12:19;;;;;;;3.33;2.28;;;14.00;94.40;;;;;;5008360;28;20330;-58
2024/03/21 01:14:44;;;;;;;4.38;2.28;;;14.00;94.50;;;;;;5023935;28;20037;-57
2024/03/21 01:17:10;;;;;;;5.45;2.50;;;14.00;94.50;;;;;;5024958;28;20034;-57
2024/03/21 01:19:37;;;;;;;5.03;2.50;;;14.00;94.60;;;;;;4991052;28;20139;-57
2024/03/21 01:22:02;;;;;;;3.75;2.03;;;13.90;94.60;;;;;;5023777;28;20021;-57
2024/03/21 01:24:28;;;;;;;4.65;2.17;;;13.90;94.60;;;;;;5023562;28;20038;-57
2024/03/21 01:26:53;;;;;;;2.85;2.28;;;13.90;94.60;;;;;;4990780;28;20017;-57
2024/03/21 01:29:19;;;;;;;4.07;2.40;;;13.90;94.60;;;;;;5024855;28;20153;-57
2024/03/21 01:31:45;;;;;;;3.55;2.33;;;13.90;94.70;;;;;;5024877;28;20022;-57
2024/03/21 01:34:10;;;;;;;2.25;1.90;;;13.90;94.70;;;;;;5007048;28;20033;-57
2024/03/21 01:36:45;;;;;;;3.70;2.40;;;13.80;94.60;;;;;;5024690;28;20026;-57
2024/03/21 01:39:11;;;;;;;3.38;2.30;;;13.90;94.70;;;;;;4991892;28;20069;-57
2024/03/21 01:41:37;;;;;;;3.70;2.42;;;13.80;94.70;;;;;;5007138;28;20041;-56
2024/03/21 01:44:03;;;;;;;4.28;2.80;;;13.80;94.70;;;;;;5024777;28;20055;-57
2024/03/21 01:46:29;;;;;;;3.83;2.33;;;13.80;94.70;;;;;;4990536;28;20455;-57
2024/03/21 01:48:54;;;;;;;3.33;2.40;;;13.80;94.70;;;;;;5024606;28;20038;-57
2024/03/21 01:51:24;;;;;;;4.32;2.50;;;13.80;94.70;;;;;;5024571;28;20022;-57
2024/03/21 01:53:51;;;;;;;5.35;2.10;;;13.80;94.80;;;;;;5006928;28;20409;-57
2024/03/21 01:56:17;;;;;;;4.57;2.22;;;13.80;94.80;;;;;;5024522;28;20088;-57
2024/03/21 01:58:42;;;;;;;3.25;2.05;;;13.80;94.80;;;;;;5023169;28;20034;-57
2024/03/21 02:01:30;;;;;;;2.70;2.10;;;13.80;94.90;;;;;;5023364;28;20026;-57
2024/03/21 02:03:57;;;;;;;3.10;2.28;;;13.70;94.80;;;;;;5023153;28;20072;-57
2024/03/21 02:06:25;;;;;;;5.13;2.30;;;13.70;94.80;;;;;;5024409;28;20030;-57
2024/03/21 02:08:53;;;;;;;4.22;2.60;;;13.80;94.90;;;;;;5006570;28;20072;-57
2024/03/21 02:11:20;;;;;;;2.72;2.13;;;13.80;94.80;;;;;;5007114;28;20033;-57
2024/03/21 02:13:48;;;;;;;3.17;2.30;;;13.70;94.80;;;;;;5024293;28;20030;-57
2024/03/21 02:16:14;;;;;;;3.88;2.13;;;13.70;94.80;;;;;;5007304;28;20034;-57
2024/03/21 02:18:40;;;;;;;3.65;2.17;;;13.70;94.80;;;;;;5026632;28;20070;-57
2024/03/21 02:22:35;;;;;;;3.95;1.98;;;13.70;94.90;;;;;;5026968;28;20041;-57
2024/03/21 02:23:51;;;;;;;4.15;2.08;;;13.70;94.80;;;;;;5013430;28;20034;-57
2024/03/21 02:26:17;;;;;;;7.15;2.20;;;13.70;94.90;;;;;;5010377;28;20177;-57
2024/03/21 02:28:43;;;;;;;2.83;2.10;;;13.70;94.90;;;;;;5026874;28;20125;-57
2024/03/21 02:31:08;;;;;;;5.18;2.22;;;13.70;94.90;;;;;;4994156;28;20393;-57
2024/03/21 02:33:34;;;;;;;4.05;2.00;;;13.70;94.90;;;;;;5028115;28;20053;-57
2024/03/21 02:35:59;;;;;;;2.85;1.90;;;13.70;95.00;;;;;;5027995;28;20044;-57
2024/03/21 02:38:25;;;;;;;3.00;2.15;;;13.60;95.00;;;;;;5010184;28;20113;-57
2024/03/21 02:40:51;;;;;;;2.85;1.90;;;13.60;95.00;;;;;;5010027;28;20026;-57
2024/03/21 02:43:16;;;;;;;4.90;2.67;;;13.60;95.00;;;;;;4993769;28;20338;-57
2024/03/21 02:45:42;;;;;;;3.70;1.83;;;13.60;95.10;;;;;;5010195;28;20076;-57
2024/03/21 02:48:08;;;;;;;4.80;1.92;;;13.60;95.10;;;;;;5010112;28;20112;-57
2024/03/21 02:50:34;;;;;;;5.03;2.00;;;13.60;95.10;;;;;;5026560;28;20030;-57
2024/03/21 02:53:01;;;;;;;2.50;1.90;;;13.60;95.10;;;;;;5009858;28;20042;-57
2024/03/21 02:55:27;;;;;;;3.17;2.03;;;13.60;95.10;;;;;;4993353;28;20068;-57
2024/03/21 02:57:53;;;;;;;3.05;2.10;;;13.60;95.10;;;;;;5009818;28;20140;-57
2024/03/21 03:00:18;;;;;;;2.90;2.22;;;13.60;95.10;;;;;;5027553;28;20030;-57
2024/03/21 03:02:45;;;;;;;4.03;2.10;;;13.60;95.10;;;;;;5009612;28;20037;-57
2024/03/21 03:05:12;;;;;;;4.07;2.33;;;13.50;95.10;;;;;;5009836;28;20054;-57
2024/03/21 03:07:38;;;;;;;3.08;2.00;;;13.60;95.20;;;;;;5009963;28;20034;-57
2024/03/21 03:10:04;;;;;;;3.58;1.90;;;13.50;95.20;;;;;;5009397;28;20061;-60
2024/03/21 03:12:30;;;;;;;3.97;1.83;;;13.50;95.20;;;;;;5009513;28;20137;-59
2024/03/21 03:14:56;;;;;;;3.00;1.92;;;13.60;95.20;;;;;;5027323;28;20038;-59
2024/03/21 03:17:22;;;;;;;4.10;2.35;;;13.50;95.10;;;;;;5009399;28;20028;-59
2024/03/21 03:19:47;;;;;;;4.65;2.33;;;13.50;95.10;;;;;;4993184;28;20526;-59
2024/03/21 03:22:13;;;;;;;2.13;1.80;;;13.50;95.20;;;;;;5027481;28;20026;-59
2024/03/21 03:24:38;;;;;;;4.95;2.28;;;13.50;95.20;;;;;;5026930;28;20105;-59
2024/03/21 03:27:04;;;;;;;2.20;2.00;;;13.50;95.30;;;;;;4992812;28;20029;-59
2024/03/21 03:29:29;;;;;;;3.40;2.20;;;13.50;95.20;;;;;;5026081;28;20040;-59
2024/03/21 03:32:01;;;;;;;3.40;2.17;;;13.50;95.20;;;;;;5026986;28;20026;-59
2024/03/21 03:37:12;;;;;;;2.83;2.08;;;13.50;95.20;;;;;;5011996;28;20037;-59
2024/03/21 03:39:37;;;;;;;2.78;2.10;;;13.50;95.30;;;;;;4992603;28;20045;-59
2024/03/21 03:42:03;;;;;;;2.90;1.83;;;13.50;95.60;;;;;;5025561;28;20075;-59
2024/03/21 03:44:29;;;;;;;3.33;2.00;;;13.50;95.30;;;;;;5026737;28;20077;-59
2024/03/21 03:46:54;;;;;;;3.70;2.17;;;13.50;95.40;;;;;;5026623;28;20499;-59
2024/03/21 03:49:20;;;;;;;4.13;1.90;;;13.50;95.40;;;;;;5026492;28;20080;-59
2024/03/21 03:51:46;;;;;;;3.70;1.77;;;13.40;95.40;;;;;;5008775;28;20022;-59
2024/03/21 03:54:12;;;;;;;2.63;1.88;;;13.40;95.30;;;;;;4992394;28;20038;-59
2024/03/21 03:56:37;;;;;;;3.42;2.10;;;13.40;95.40;;;;;;4992528;28;20045;-59
2024/03/21 03:59:03;;;;;;;5.78;2.03;;;13.40;95.40;;;;;;5008524;28;20037;-59
2024/03/21 04:01:29;;;;;;;3.35;2.05;;;13.40;95.40;;;;;;5025010;28;20037;-59
2024/03/21 04:03:55;;;;;;;2.25;1.90;;;13.40;95.40;;;;;;5008694;28;20026;-59
2024/03/21 04:06:20;;;;;;;3.00;2.15;;;13.40;95.40;;;;;;5008540;28;20036;-59
2024/03/21 04:08:46;;;;;;;2.10;1.90;;;13.40;95.40;;;;;;5008584;28;20029;-59
2024/03/21 04:11:15;;;;;;;2.40;2.13;;;13.40;95.40;;;;;;5026133;28;20080;-60
2024/03/21 04:13:41;;;;;;;2.67;2.15;;;13.40;95.50;;;;;;5008608;28;20105;-59
2024/03/21 04:16:12;;;;;;;3.45;2.03;;;13.40;95.50;;;;;;5024891;28;20038;-59
2024/03/21 04:18:38;;;;;;;2.85;2.10;;;13.40;95.50;;;;;;4992119;28;20100;-60
2024/03/21 04:21:04;;;;;;;3.50;2.13;;;13.30;95.50;;;;;;5024814;28;20056;-59
2024/03/21 04:23:29;;;;;;;4.75;2.40;;;13.30;95.50;;;;;;5008075;28;20400;-59
2024/03/21 04:25:55;;;;;;;3.20;1.90;;;13.30;95.60;;;;;;5008165;28;20515;-59
2024/03/21 04:28:20;;;;;;;3.20;2.20;;;13.30;95.60;;;;;;5008239;28;20037;-59
2024/03/21 04:30:46;;;;;;;3.28;2.20;;;13.30;95.50;;;;;;5008128;28;20117;-59
2024/03/21 04:33:12;;;;;;;4.03;2.00;;;13.30;95.50;;;;;;5025875;28;20074;-59
2024/03/21 04:35:39;;;;;;;3.28;2.17;;;13.30;95.50;;;;;;5008004;28;20176;-59
2024/03/21 04:38:07;;;;;;;3.10;2.00;;;13.30;95.50;;;;;;5025606;28;20076;-59
2024/03/21 04:40:33;;;;;;;3.88;2.17;;;13.30;95.60;;;;;;4991891;28;20021;-59
2024/03/21 04:42:59;;;;;;;2.78;2.00;;;13.30;95.60;;;;;;5008371;28;20500;-59
2024/03/21 04:45:24;;;;;;;4.03;2.17;;;13.30;95.60;;;;;;5024425;28;20026;-59
2024/03/21 04:47:51;;;;;;;7.60;2.35;;;13.30;95.60;;;;;;5007782;28;20090;-60
2024/03/21 04:50:17;;;;;;;3.20;2.30;;;13.30;95.60;;;;;;5024213;28;20077;-59
2024/03/21 04:52:42;;;;;;;2.88;1.90;;;13.30;95.60;;;;;;4991820;28;20050;-59
2024/03/21 04:55:08;;;;;;;3.35;1.92;;;13.30;95.60;;;;;;5007568;28;20520;-59
2024/03/21 04:57:34;;;;;;;2.90;2.20;;;13.30;95.60;;;;;;5007855;28;20034;-59
2024/03/21 04:59:59;;;;;;;4.35;2.10;;;13.30;95.60;;;;;;5025180;28;20041;-59
2024/03/21 05:02:25;;;;;;;3.95;2.40;;;13.30;95.60;;;;;;5007488;28;20021;-59
2024/03/21 05:04:51;;;;;;;3.20;2.10;;;13.30;95.60;;;;;;5025098;28;20026;-59
2024/03/21 05:07:16;;;;;;;3.20;2.20;;;13.30;95.70;;;;;;5025002;28;20022;-59
2024/03/21 05:09:42;;;;;;;4.53;1.95;;;13.30;95.80;;;;;;5025160;28;20029;-59
2024/03/21 05:12:07;;;;;;;3.47;2.25;;;13.30;95.80;;;;;;5007140;28;20093;-59
2024/03/21 05:14:34;;;;;;;3.22;2.17;;;13.30;95.90;;;;;;5007044;28;20033;-59
2024/03/21 05:17:01;;;;;;;5.85;2.22;;;13.20;96.00;;;;;;5006905;28;20117;-59
2024/03/21 05:19:27;;;;;;;3.15;2.00;;;13.30;96.10;;;;;;5007220;28;20096;-59
2024/03/21 05:21:52;;;;;;;3.85;2.53;;;13.30;96.10;;;;;;5023538;28;20018;-59
2024/03/21 05:24:18;;;;;;;3.35;2.50;;;13.20;96.10;;;;;;5007371;28;20113;-59
2024/03/21 05:26:43;;;;;;;3.28;1.90;;;13.30;96.20;;;;;;4990943;28;20548;-59
2024/03/21 05:29:09;;;;;;;5.25;2.22;;;13.30;96.20;;;;;;5024787;28;20034;-59
2024/03/21 05:31:35;;;;;;;4.57;2.03;;;13.20;96.20;;;;;;5024625;28;20076;-59
2024/03/21 05:34:00;;;;;;;5.22;2.30;;;13.30;96.30;;;;;;5007164;28;20030;-59
2024/03/21 05:36:26;;;;;;;6.45;1.98;;;13.20;96.30;;;;;;5006883;28;20030;-59
2024/03/21 05:38:52;;;;;;;4.72;2.50;;;13.30;96.30;;;;;;5006842;28;20085;-59
2024/03/21 05:41:17;;;;;;;6.68;2.60;;;13.30;96.30;;;;;;5024343;28;20026;-59
2024/03/21 05:43:43;;;;;;;7.20;2.53;;;13.30;96.40;;;;;;5006894;28;20053;-59
2024/03/21 05:46:09;;;;;;;8.93;3.00;;;13.30;96.30;;;;;;5023382;28;20022;-59
2024/03/21 05:48:35;;;;;;;5.60;2.30;;;13.30;96.30;;;;;;5024804;28;20037;-59
2024/03/21 05:51:00;;;;;;;7.75;2.20;;;13.20;96.30;;;;;;5006728;28;20062;-59
2024/03/21 05:53:29;;;;;;;5.05;2.17;;;13.30;96.40;;;;;;5006184;28;20033;-59
2024/03/21 05:56:04;;;;;;;7.70;2.40;;;13.30;96.30;;;;;;5024411;28;20066;-59
2024/03/21 05:58:31;;;;;;;12.57;2.97;;;13.30;96.30;;;;;;5006676;28;20030;-59
2024/03/21 06:01:03;;;;;;;8.65;2.60;;;13.30;96.30;;;;;;5006834;28;20061;-59
2024/03/21 06:03:29;;;;;;;8.65;2.60;;;13.30;96.40;;;;;;4991106;28;20030;-59
2024/03/21 06:05:55;;;;;;;7.45;2.85;;;13.30;96.40;;;;;;4990448;28;20468;-59
2024/03/21 06:08:21;;;;;;;21.73;5.15;;;13.30;96.40;;;;;;5006641;28;20121;-59
2024/03/21 06:10:46;;;;;;;14.52;3.92;;;13.30;96.50;;;;;;5024309;28;20077;-59
2024/03/21 06:13:12;;;;;;;20.23;4.43;;;13.30;96.50;;;;;;5006599;28;20041;-59
2024/03/21 06:15:37;;;;;;;22.42;3.83;;;13.30;96.80;;;;;;5022830;28;20041;-59
2024/03/21 06:18:03;;;;;;;17.45;4.43;;;13.30;96.50;;;;;;5006210;28;20037;-59
2024/03/21 06:20:29;;;;;;;13.95;3.65;;;13.30;96.50;;;;;;5024171;28;20078;-59
2024/03/21 06:22:55;;;;;;;20.25;4.82;;;13.30;96.60;;;;;;5006436;28;20026;-60
2024/03/21 06:25:20;;;;;;;27.65;5.78;;;13.30;96.60;;;;;;5006770;28;20030;-59
2024/03/21 06:27:48;;;;;;;22.88;4.55;;;13.30;96.70;;;;;;5022558;28;20098;-59
2024/03/21 06:30:14;;;;;;;25.92;5.25;;;13.30;96.80;;;;;;4990338;28;20037;-59
2024/03/21 06:32:40;;;;;;;39.78;5.78;;;13.30;96.80;;;;;;5024204;28;20026;-60
2024/03/21 06:35:06;;;;;;;33.13;5.95;;;13.30;97.00;;;;;;5024134;28;20105;-60
2024/03/21 06:37:33;;;;;;;41.85;6.88;;;13.30;97.30;;;;;;5006119;28;20056;-59
2024/03/21 06:39:59;;;;;;;75.93;8.90;;;13.30;97.30;;;;;;5024136;28;20050;-60
2024/03/21 06:42:25;;;;;;;50.72;7.25;;;13.30;97.30;;;;;;5006413;28;20030;-60
2024/03/21 06:44:51;;;;;;;51.50;7.05;;;13.30;97.40;;;;;;5006369;28;20026;-59
2024/03/21 06:47:16;;;;;;;63.45;7.45;;;13.30;97.50;;;;;;5006313;28;20026;-60
2024/03/21 06:49:42;;;;;;;46.17;7.15;;;13.30;97.50;;;;;;5032457;28;20038;-60
2024/03/21 06:52:07;;;;;;;36.05;7.05;;;13.30;97.60;;;;;;5009812;28;20037;-60
2024/03/21 06:54:33;;;;;;;51.42;8.00;;;13.40;97.70;;;;;;5009482;28;20072;-60
2024/03/21 06:57:00;;;;;;;53.55;8.57;;;13.30;97.60;;;;;;5009416;28;20462;-59
2024/03/21 06:59:25;;;;;;;55.65;8.77;;;13.40;97.60;;;;;;5026009;28;20083;-60
2024/03/21 07:01:51;;;;;;;43.20;8.27;;;13.40;97.70;;;;;;5043552;28;20029;-60
2024/03/21 07:04:17;;;;;;;73.30;8.18;;;13.40;97.70;;;;;;5025780;28;20034;-60
2024/03/21 07:06:43;;;;;;;46.38;8.75;;;13.40;97.70;;;;;;5009484;28;20338;-60
2024/03/21 07:09:08;;;;;;;48.45;8.35;;;13.40;97.90;;;;;;5047262;28;20506;-60
2024/03/21 07:11:34;;;;;;;42.63;7.47;;;13.40;98.00;;;;;;5029074;28;20057;-60
2024/03/21 07:14:01;;;;;;;36.85;7.30;;;13.40;98.10;;;;;;5047042;28;20036;-60
2024/03/21 07:16:27;;;;;;;44.97;8.90;;;13.40;98.10;;;;;;5029519;28;20055;-60
2024/03/21 07:18:53;;;;;;;46.90;7.82;;;13.40;98.10;;;;;;5046919;28;20470;-60
2024/03/21 07:21:19;;;;;;;34.35;7.32;;;13.40;98.20;;;;;;5046875;28;20030;-60
2024/03/21 07:23:44;;;;;;;43.85;8.05;;;13.40;98.20;;;;;;5029192;28;20053;-60
2024/03/21 07:26:10;;;;;;;45.55;8.90;;;13.40;98.30;;;;;;5029461;28;20401;-60
2024/03/21 07:28:35;;;;;;;50.63;8.25;;;13.40;98.30;;;;;;5047037;28;20420;-60
2024/03/21 07:31:01;;;;;;;47.97;8.43;;;13.40;98.30;;;;;;5028835;28;20041;-60
2024/03/21 07:33:27;;;;;;;45.72;8.77;;;13.40;98.30;;;;;;5046528;28;20132;-60
2024/03/21 07:35:55;;;;;;;36.05;7.72;;;13.40;98.40;;;;;;5046700;28;20030;-60
2024/03/21 07:38:21;;;;;;;49.75;9.15;;;13.40;98.40;;;;;;5012559;28;20084;-60
2024/03/21 07:40:54;;;;;;;39.78;8.77;;;13.40;98.50;;;;;;5046554;28;20022;-60
2024/03/21 07:43:20;;;;;;;51.53;8.57;;;13.40;98.80;;;;;;5012409;28;20049;-60
2024/03/21 07:45:45;;;;;;;55.65;8.15;;;13.50;98.80;;;;;;5028491;28;20025;-60
2024/03/21 07:48:11;;;;;;;47.17;8.63;;;13.50;98.90;;;;;;5012190;28;20471;-60
2024/03/21 07:50:36;;;;;;;46.65;7.68;;;13.50;99.00;;;;;;5046376;28;20112;-59
2024/03/21 07:53:03;;;;;;;60.28;9.25;;;13.50;99.10;;;;;;5046187;28;20056;-59
2024/03/21 07:55:29;;;;;;;34.58;7.88;;;13.50;99.10;;;;;;5028417;28;20129;-60
2024/03/21 07:57:55;;;;;;;40.10;7.38;;;13.50;99.10;;;;;;5028382;28;20057;-60
2024/03/21 08:00:21;;;;;;;32.00;6.78;;;13.50;99.10;;;;;;5046275;28;20045;-60
2024/03/21 08:02:47;;;;;;;43.35;7.90;;;13.50;99.10;;;;;;5028247;28;20032;-60
2024/03/21 08:05:12;;;;;;;27.15;6.72;;;13.60;99.30;;;;;;5011704;28;20097;-60
2024/03/21 08:07:38;;;;;;;44.88;7.57;;;13.50;99.30;;;;;;5028145;28;20092;-60
2024/03/21 08:10:04;;;;;;;50.20;7.93;;;13.50;99.50;;;;;;5028126;28;20041;-59
2024/03/21 08:12:30;;;;;;;46.88;7.13;;;13.50;99.60;;;;;;5025128;28;20083;-60
2024/03/21 08:14:55;;;;;;;39.63;7.47;;;13.60;99.70;;;;;;5038779;28;20049;-60
2024/03/21 08:17:21;;;;;;;31.00;7.28;;;13.60;99.70;;;;;;5023913;28;20018;-60
2024/03/21 08:19:50;;;;;;;57.30;8.68;;;13.60;99.70;;;;;;5040613;28;20101;-60
2024/03/21 08:22:16;;;;;;;35.58;6.88;;;13.60;99.90;;;;;;5007188;28;20057;-60
2024/03/21 08:24:42;;;;;;;41.60;7.60;;;13.60;99.90;;;;;;5008379;28;20048;-59
2024/03/21 08:27:07;;;;;;;49.30;6.78;;;13.70;99.90;;;;;;5009014;28;20088;-59
2024/03/21 08:29:33;;;;;;;48.80;8.00;;;13.60;99.90;;;;;;5024039;28;20438;-59
2024/03/21 08:31:59;;;;;;;69.85;9.27;;;13.70;99.90;;;;;;4987851;28;20030;-59
2024/03/21 08:34:24;;;;;;;66.30;10.40;;;13.70;99.90;;;;;;4991561;28;20021;-59
2024/03/21 08:36:50;;;;;;;50.83;8.60;;;13.70;99.90;;;;;;5007476;28;20025;-59
2024/03/21 08:39:16;;;;;;;77.40;8.93;;;13.70;99.90;;;;;;5024747;28;20048;-60
2024/03/21 08:41:41;;;;;;;69.47;10.30;;;13.70;99.90;;;;;;5007037;28;20022;-60
2024/03/21 08:44:07;;;;;;;61.85;9.10;;;13.80;99.90;;;;;;5007528;28;20030;-60
2024/03/21 08:46:32;;;;;;;105.68;12.88;;;13.80;99.90;;;;;;5007098;28;20452;-60
2024/03/21 08:48:58;;;;;;;86.07;11.57;;;13.80;99.90;;;;;;5006890;28;20038;-59
2024/03/21 08:51:24;;;;;;;58.50;9.05;;;13.90;99.90;;;;;;5007222;28;20164;-60
2024/03/21 08:53:49;;;;;;;44.20;6.75;;;13.80;99.90;;;;;;5007157;28;20065;-60
2024/03/21 08:56:15;;;;;;;36.50;7.63;;;13.90;99.90;;;;;;5024744;28;20074;-60
2024/03/21 08:58:40;;;;;;;41.45;8.32;;;14.00;99.90;;;;;;5006857;28;20034;-60
2024/03/21 09:01:06;;;;;;;51.17;7.72;;;14.00;99.90;;;;;;5008121;28;20357;-60
2024/03/21 09:03:32;;;;;;;49.47;7.85;;;14.00;99.90;;;;;;5023240;28;20022;-60
2024/03/21 09:05:58;;;;;;;51.88;7.88;;;14.10;99.90;;;;;;5024754;28;20030;-60
2024/03/21 09:08:23;;;;;;;63.72;8.07;;;14.10;99.90;;;;;;5024473;28;20071;-60
2024/03/21 09:10:49;;;;;;;102.68;12.25;;;14.10;99.90;;;;;;5024006;28;20046;-59
2024/03/21 09:13:15;;;;;;;47.00;8.02;;;14.10;99.90;;;;;;5007053;28;20041;-60
2024/03/21 09:15:40;;;;;;;95.55;10.93;;;14.10;99.90;;;;;;5024403;28;20066;-60
2024/03/21 09:18:06;;;;;;;59.55;8.52;;;14.20;99.90;;;;;;5007040;28;20022;-60
2024/03/21 09:20:32;;;;;;;89.32;10.35;;;14.20;99.90;;;;;;5004940;28;20422;-59
2024/03/21 09:22:57;;;;;;;74.82;10.35;;;14.30;99.90;;;;;;4989635;28;20034;-60
2024/03/21 09:25:23;;;;;;;89.60;10.52;;;14.30;99.90;;;;;;5024039;28;20057;-60
2024/03/21 09:27:48;;;;;;;77.45;11.00;;;14.40;99.90;;;;;;5023087;28;20045;-60
2024/03/21 09:30:15;;;;;;;78.13;10.95;;;14.40;99.90;;;;;;5023602;28;20048;-59
2024/03/21 09:32:40;;;;;;;230.35;20.63;;;14.40;99.90;;;;;;4989623;28;20112;-60
2024/03/21 09:35:07;;;;;;;114.25;13.10;;;14.40;99.90;;;;;;5005725;28;20084;-60
2024/03/21 09:37:33;;;;;;;108.82;12.35;;;14.50;99.90;;;;;;5005643;28;20076;-60
2024/03/21 09:39:59;;;;;;;54.65;8.10;;;14.50;99.90;;;;;;5008052;28;20029;-60
2024/03/21 09:42:24;;;;;;;77.30;9.68;;;14.60;99.90;;;;;;4992834;28;20029;-59
2024/03/21 09:44:53;;;;;;;57.92;8.23;;;14.60;99.90;;;;;;4970236;28;20051;-60
2024/03/21 09:47:20;;;;;;;52.47;7.93;;;14.60;99.90;;;;;;5006755;28;20022;-60
2024/03/21 09:49:51;;;;;;;63.30;9.60;;;14.60;99.90;;;;;;4986026;28;20031;-60
2024/03/21 09:52:17;;;;;;;64.25;10.45;;;14.60;99.90;;;;;;4986583;28;20045;-60
2024/03/21 09:54:42;;;;;;;89.53;11.55;;;14.60;99.90;;;;;;5003334;28;20065;-57
2024/03/21 09:57:12;;;;;;;54.00;8.32;;;14.70;99.90;;;;;;4992615;28;20643;-57
2024/03/21 09:59:38;;;;;;;44.17;7.80;;;14.70;99.90;;;;;;5016203;28;20038;-57
2024/03/21 10:02:06;;;;;;;44.58;7.43;;;14.70;99.90;;;;;;5002017;28;20556;-57
2024/03/21 10:04:43;;;;;;;51.85;7.20;;;14.80;99.90;;;;;;4994430;28;20105;-57
2024/03/21 10:07:18;;;;;;;47.33;6.03;;;14.80;99.90;;;;;;4992435;28;20026;-57
2024/03/21 10:10:02;;;;;;;50.78;8.25;;;14.80;99.90;;;;;;4987799;28;20026;-57
2024/03/21 10:12:28;;;;;;;42.53;6.68;;;14.90;99.90;;;;;;5017395;28;20112;-57
2024/03/21 10:14:55;;;;;;;45.00;6.25;;;14.90;99.90;;;;;;5001250;28;20030;-57
2024/03/21 10:17:22;;;;;;;37.83;8.13;;;15.00;99.90;;;;;;4995401;28;20022;-57
2024/03/21 10:19:47;;;;;;;45.20;7.68;;;15.00;99.90;;;;;;4990225;28;20037;-57
2024/03/21 10:22:18;;;;;;;69.30;8.40;;;15.00;99.90;;;;;;5013984;28;20022;-57
2024/03/21 10:24:43;;;;;;;59.38;8.07;;;15.10;99.90;;;;;;4987946;28;20034;-57
2024/03/21 10:27:13;;;;;;;50.78;8.48;;;15.10;99.90;;;;;;5003442;28;20025;-57
2024/03/21 10:29:39;;;;;;;54.92;8.45;;;15.10;99.90;;;;;;5001127;28;20058;-57
2024/03/21 10:32:04;;;;;;;68.72;8.68;;;15.20;99.90;;;;;;4991611;28;20109;-57
2024/03/21 10:34:30;;;;;;;73.28;9.90;;;15.20;99.90;;;;;;4998467;28;20129;-57
2024/03/21 10:36:55;;;;;;;49.90;7.70;;;15.20;99.90;;;;;;4987189;28;20038;-57
2024/03/21 10:39:21;;;;;;;43.85;7.38;;;15.20;99.90;;;;;;5015663;28;20113;-57
2024/03/21 10:41:47;;;;;;;34.80;5.78;;;15.20;99.90;;;;;;5006410;28;20113;-57
2024/03/21 10:44:14;;;;;;;47.47;7.35;;;15.20;99.90;;;;;;4978786;28;20189;-57
2024/03/21 10:46:40;;;;;;;25.83;5.75;;;15.30;99.90;;;;;;5006693;28;20046;-57
2024/03/21 10:49:05;;;;;;;30.73;6.05;;;15.30;99.90;;;;;;5017707;28;20046;-57
2024/03/21 10:51:31;;;;;;;32.53;6.57;;;15.30;99.90;;;;;;4996529;28;20034;-57
2024/03/21 10:54:01;;;;;;;29.80;6.40;;;15.30;99.90;;;;;;4989884;28;20390;-57
2024/03/21 10:56:32;;;;;;;37.50;5.88;;;15.40;99.90;;;;;;4993850;28;20030;-57
2024/03/21 10:58:58;;;;;;;34.25;6.97;;;15.40;99.90;;;;;;5001690;28;20499;-57
2024/03/21 11:01:45;;;;;;;61.20;9.10;;;15.40;99.90;;;;;;4993027;28;20026;-57
2024/03/21 11:04:11;;;;;;;38.42;7.00;;;15.50;99.90;;;;;;5000039;28;20090;-57
2024/03/21 11:06:38;;;;;;;44.53;8.05;;;15.50;99.90;;;;;;5017117;28;20105;-57
2024/03/21 11:09:05;;;;;;;48.92;8.85;;;15.60;99.90;;;;;;4987910;28;20107;-57
2024/03/21 11:11:30;;;;;;;41.40;7.18;;;15.60;99.90;;;;;;5009304;28;20041;-57
2024/03/21 11:14:03;;;;;;;20.00;4.47;;;15.70;99.90;;;;;;5007925;28;20037;-57
2024/03/21 11:16:29;;;;;;;33.03;6.15;;;15.70;99.90;;;;;;5020491;28;20135;-57
2024/03/21 11:18:55;;;;;;;42.47;6.18;;;15.70;99.90;;;;;;4995345;28;20041;-57
2024/03/21 11:21:21;;;;;;;301.15;25.35;;;15.70;99.90;;;;;;5029974;28;20029;-57
2024/03/21 11:23:47;;;;;;;63.40;8.52;;;15.80;99.90;;;;;;5008035;28;20112;-57
2024/03/21 11:26:14;;;;;;;55.63;8.75;;;15.80;99.90;;;;;;5018371;28;20029;-57
2024/03/21 11:28:40;;;;;;;67.80;8.48;;;15.90;99.90;;;;;;5025018;28;20030;-57
2024/03/21 11:31:19;;;;;;;44.88;7.43;;;15.90;99.90;;;;;;5014326;28;20114;-57
2024/03/21 11:33:46;;;;;;;70.55;8.65;;;15.90;99.90;;;;;;5012298;28;20038;-57
2024/03/21 11:36:12;;;;;;;52.50;9.05;;;15.90;99.90;;;;;;5007356;28;20030;-57
2024/03/21 11:38:38;;;;;;;94.32;11.32;;;16.00;99.90;;;;;;5004223;28;20038;-56
2024/03/21 11:41:04;;;;;;;38.88;6.50;;;16.10;99.90;;;;;;5021442;28;20029;-57
2024/03/21 11:43:30;;;;;;;58.63;8.75;;;16.00;99.90;;;;;;5020354;28;20025;-57
2024/03/21 11:45:58;;;;;;;49.65;7.78;;;16.10;99.90;;;;;;5024639;28;20034;-57
2024/03/21 11:48:27;;;;;;;53.78;7.63;;;16.10;99.90;;;;;;4987057;28;20085;-57
2024/03/21 11:50:53;;;;;;;58.05;7.85;;;16.10;99.90;;;;;;5005832;28;20036;-57
2024/03/21 11:53:19;;;;;;;57.38;7.68;;;16.20;99.90;;;;;;5001029;28;20053;-57
2024/03/21 11:55:45;;;;;;;116.20;12.43;;;16.20;99.90;;;;;;4994572;28;20526;-57
2024/03/21 11:58:12;;;;;;;54.08;8.35;;;16.20;99.90;;;;;;5015120;28;20030;-57
2024/03/21 12:00:38;;;;;;;91.78;11.80;;;16.20;99.90;;;;;;5046536;28;20064;-57
2024/03/21 12:03:04;;;;;;;102.32;11.30;;;16.20;99.90;;;;;;4990345;28;20051;-57
2024/03/21 12:05:29;;;;;;;53.38;8.07;;;16.30;99.90;;;;;;5005710;28;20026;-57
2024/03/21 12:07:58;;;;;;;74.05;9.63;;;16.30;99.90;;;;;;5020203;28;20029;-57
2024/03/21 12:10:23;;;;;;;69.38;8.85;;;16.30;99.90;;;;;;5017409;28;20042;-57
2024/03/21 12:12:49;;;;;;;64.85;9.02;;;16.60;99.90;;;;;;5038111;28;20053;-57
2024/03/21 12:15:15;;;;;;;75.13;11.20;;;16.40;99.90;;;;;;4987016;28;20050;-57
2024/03/21 12:17:41;;;;;;;65.47;10.23;;;16.50;99.90;;;;;;5004220;28;20101;-57
2024/03/21 12:20:08;;;;;;;61.95;8.88;;;16.50;99.90;;;;;;4987290;28;20449;-57
2024/03/21 12:22:33;;;;;;;63.95;9.20;;;16.60;99.90;;;;;;5006998;28;20034;-57
2024/03/21 12:25:00;;;;;;;72.68;9.13;;;16.60;99.90;;;;;;5021250;28;20037;-57
2024/03/21 12:27:26;;;;;;;75.97;8.13;;;16.60;99.90;;;;;;5001510;28;20041;-57
2024/03/21 12:29:51;;;;;;;73.32;10.00;;;16.70;99.90;;;;;;4988187;28;20030;-57
2024/03/21 12:32:17;;;;;;;104.85;11.40;;;16.70;99.90;;;;;;5014255;28;20025;-57
2024/03/21 12:34:43;;;;;;;85.78;11.27;;;16.80;99.90;;;;;;5002084;28;20038;-57
2024/03/21 12:37:12;;;;;;;94.05;11.10;;;16.80;99.90;;;;;;4992403;28;20030;-57
2024/03/21 12:39:42;;;;;;;66.70;8.95;;;16.80;99.90;;;;;;4972000;28;20030;-57